• Join FlightAware (Why Join?)
  • Login
  • US Flag 
01:51AM EST


 

Airport Tracker/Info


-or-


 

Live Flight TrackerFlight Track Log ✈ EGF2819 ✈ 27-Sep-2013 ✈ KMGM - KDFW

Flight Track Log - Related Links

Times and Time Zones

All times are in EDT time to prevent confusion due to time zone crossing. See the EGF2819 flight status page for this flight to view local times or setup timezone preferences in your user account.

Time Position Orientation Groundspeed Altitude Reporting Facility
EDT Latitude Longitude Course Direction KTS MPH feet Rate Location/Type
08:24AM 32.2553 -86.3475 270° West 223 257 3,300  Level Atlanta Center
08:25AM 32.2472 -86.4358 264° West 276 318 5,400 2,460 Climbing Atlanta Center
08:26AM 32.3344 -86.7407 270° West  Level Estimated
08:26AM 32.2581 -86.5244 278° West 275 316 8,300  Level Atlanta Center
08:27AM 32.3282 -86.8568 266° West  Level FlightAware Approximate
08:27AM 32.2625 -86.6056 274° West 278 320 9,900  Level Atlanta Center
08:28AM 32.3393 -86.9724 270° West  Level Estimated
08:28AM 32.2689 -86.7064 274° West 298 343 11,400  Level Atlanta Center
08:29AM 32.2747 -86.8172 274° West 321 369 13,100 1,620 Climbing Atlanta Center
08:30AM 32.2806 -86.9281 274° West 337 388 14,700 1,380 Climbing Atlanta Center
08:31AM 32.2883 -87.0411 275° West 348 400 15,900 1,380 Climbing Atlanta Center
08:32AM 32.2958 -87.1569 274° West 354 407 17,500 1,500 Climbing Atlanta Center
08:33AM 32.3011 -87.2725 273° West 354 407 18,900 1,560 Climbing Atlanta Center
08:34AM 32.3103 -87.4008 275° West 356 410 20,700 1,620 Climbing Atlanta Center
08:35AM 32.3175 -87.5167 274° West 361 415 22,200 1,200 Climbing Atlanta Center
08:36AM 32.3247 -87.6297 274° West 361 415 23,200 960 Climbing Atlanta Center
08:37AM 32.3275 -87.7456 272° West 361 415 24,200 900 Climbing Atlanta Center
08:39AM 32.3375 -87.9428 273° West 355 409 25,800 900 Climbing Memphis Center
08:40AM 32.3439 -88.0681 273° West 363 418 26,800 960 Climbing Memphis Center
08:41AM 32.3525 -88.1933 275° West 379 436 27,800 1,080 Climbing Memphis Center
08:42AM 32.3569 -88.3358 272° West 390 449 29,000 1,080 Climbing Memphis Center
08:43AM 32.3653 -88.4683 274° West 395 455 30,000 900 Climbing Memphis Center
08:44AM 32.3689 -88.5767 272° West 395 455 30,900 900 Climbing Memphis Center
08:45AM 32.3750 -88.7092 273° West 395 455 31,900 960 Climbing Memphis Center
08:46AM 32.3828 -88.8419 274° West 404 465 32,900 960 Climbing Memphis Center
08:47AM 32.3886 -88.9772 273° West 404 465 33,900 540 Climbing Memphis Center
08:48AM 32.3964 -89.1147 274° West 410 472 34,000  Climbing Memphis Center
08:49AM 32.4039 -89.2575 274° West 424 488 34,000  Level Memphis Center
08:50AM 32.4094 -89.4025 273° West 435 501 34,000  Level Memphis Center
08:51AM 32.4186 -89.5453 274° West 440 506 34,000  Level Memphis Center
08:52AM 32.4239 -89.6878 273° West 440 506 34,000  Level Memphis Center
08:53AM 32.4308 -89.8331 273° West 440 506 34,000  Level Memphis Center
08:54AM 32.4375 -89.9783 273° West 440 506 34,000  Level Memphis Center
08:55AM 32.4442 -90.1236 273° West 440 506 34,000  Level Memphis Center
08:56AM 32.4506 -90.2661 273° West 440 506 34,000  Level Memphis Center
08:57AM 32.4569 -90.4114 273° West 440 506 34,000  Level Memphis Center
08:58AM 32.4608 -90.5567 272° West 440 506 34,000  Level Memphis Center
08:59AM 32.4669 -90.6972 273° West 440 506 34,000  Level Memphis Center
09:00AM 32.4747 -90.8450 274° West 440 506 34,000  Level Memphis Center
09:01AM 32.4803 -90.9903 273° West 440 506 34,000  Level Memphis Center
09:03AM 32.4936 -91.2761 273° West 454 522 34,000  Level Fort Worth Center
09:04AM 32.4986 -91.4186 272° West 454 522 34,000  Level Fort Worth Center
09:05AM 32.5033 -91.5636 272° West 447 514 34,000  Level Fort Worth Center
09:06AM 32.5078 -91.7086 272° West 447 514 34,000  Level Fort Worth Center
09:07AM 32.5122 -91.8561 272° West 447 514 34,000  Level Fort Worth Center
09:08AM 32.5167 -92.0036 272° West 447 514 34,000  Level Fort Worth Center
09:09AM 32.5106 -92.1517 267° West 447 514 34,000  Level Fort Worth Center
09:10AM 32.4997 -92.2978 265° West 447 514 34,000  Level Fort Worth Center
09:11AM 32.4889 -92.4436 265° West 447 514 34,000  Level Fort Worth Center
09:12AM 32.4819 -92.5867 267° West 442 509 34,000  Level Fort Worth Center
09:13AM 32.4708 -92.7325 265° West 447 514 34,000  Level Fort Worth Center
09:14AM 32.4594 -92.8808 265° West 447 514 34,000  Level Fort Worth Center
09:15AM 32.4500 -93.0267 266° West 447 514 34,000  Level Fort Worth Center
09:16AM 32.4386 -93.1772 265° West 452 520 34,000  Level Fort Worth Center
09:17AM 32.4267 -93.3231 264° West 452 520 34,000  Level Fort Worth Center
09:18AM 32.4153 -93.4858 265° West 447 514 34,000  Level Fort Worth Center
09:19AM 32.4008 -93.6342 263° West 447 514 34,000  Level Fort Worth Center
09:20AM 32.3947 -93.7769 267° West 452 520 34,000  Level Fort Worth Center
09:21AM 32.3803 -93.9303 264° West 452 520 34,000  Level Fort Worth Center
09:22AM 32.3697 -94.0781 265° West 452 520 34,000  Level Fort Worth Center
09:23AM 32.3567 -94.2236 264° West 452 520 34,000  Level Fort Worth Center
09:24AM 32.3458 -94.3717 265° West 452 520 34,000  Level Fort Worth Center
09:25AM 32.3472 -94.5167 271° West 452 520 34,000  Level Fort Worth Center
09:26AM 32.3503 -94.6642 271° West 452 520 34,000 -480 Level Fort Worth Center
09:27AM 32.3556 -94.8139 272° West 452 520 33,100 -960 Descending Fort Worth Center
09:28AM 32.3586 -94.9664 271° West 457 526 32,100 -1,020 Descending Fort Worth Center
09:29AM 32.3617 -95.1211 271° West 469 540 31,100 -1,020 Descending Fort Worth Center
09:30AM 32.3664 -95.2736 272° West 469 540 30,100 -1,020 Descending Fort Worth Center
09:31AM 32.3689 -95.4308 271° West 474 545 29,100 -1,020 Descending Fort Worth Center
09:32AM 32.3711 -95.5808 271° West 474 545 28,100 -1,500 Descending Fort Worth Center
09:33AM 32.3714 -95.7358 270° West 474 545 26,100 -2,280 Descending Fort Worth Center
09:34AM 32.3753 -95.8783 272° West 462 532 23,600 -2,520 Descending Fort Worth Center
09:35AM 32.3789 -96.0236 272° West 445 512 21,100 -2,640 Descending Fort Worth Center
09:36AM 32.3803 -96.1589 271° West 424 488 18,400 -2,460 Descending Fort Worth Center
09:37AM 32.3794 -96.2942 270° West 412 474 16,200 -1,980 Descending Fort Worth Center
09:38AM 32.4161 -96.4117 290° West 389 448 14,500 -2,100 Descending Fort Worth Center
09:39AM 32.4711 -96.5122 303° West 382 440 12,100 -1,800 Descending Fort Worth Center
09:40AM 32.5322 -96.6125 306° West 382 440 11,000 -600 Descending Fort Worth Center
09:41AM 32.5956 -96.7081 308° West 371 427 11,000  Level Fort Worth Center
09:42AM 32.6628 -96.7867 315° West 371 427 11,000  Level Fort Worth Center
09:43AM 32.7300 -96.8628 316° Northwest 331 381 11,000 -300 Level Fort Worth Center
09:44AM 32.7844 -96.9092 324° Northwest 274 315 10,500 -1,200 Descending Fort Worth Center
09:45AM 32.8667 -96.9000 North 267 307 8,400 -1,500 Descending Dallas / Fort Worth TRACON
09:46AM 32.9500 -96.9000 360° North 254 292 7,200 -1,380 Descending Dallas / Fort Worth TRACON
09:47AM 33.0167 -96.9000 360° North 250 288 5,700 -1,560 Descending Dallas / Fort Worth TRACON
09:48AM 33.0333 -96.9833 283° West 226 260 4,100 -1,800 Descending Dallas / Fort Worth TRACON
09:49AM 33.0000 -97.0167 220° Southwest 207 238 2,200 -1,440 Descending Dallas / Fort Worth TRACON
09:50AM 32.9500 -97.0167 180° South 129 148 1,400 -900 Descending Dallas / Fort Worth TRACON